sensor_id;sensor_type;location;lat;lon;timestamp;P1;durP1;ratioP1;P2;durP2;ratioP2
30048;SDS011;16879;50.852;15.602;2023-03-01T00:01:29;59.45;;;25.40;;
30048;SDS011;16879;50.852;15.602;2023-03-01T00:03:56;47.67;;;21.42;;
30048;SDS011;16879;50.852;15.602;2023-03-01T00:06:23;51.20;;;23.10;;
30048;SDS011;16879;50.852;15.602;2023-03-01T00:08:50;53.00;;;21.95;;
30048;SDS011;16879;50.852;15.602;2023-03-01T00:11:17;61.83;;;27.15;;
30048;SDS011;16879;50.852;15.602;2023-03-01T00:13:44;44.25;;;23.60;;
30048;SDS011;16879;50.852;15.602;2023-03-01T00:16:34;64.07;;;26.00;;
30048;SDS011;16879;50.852;15.602;2023-03-01T00:19:00;68.88;;;31.02;;
30048;SDS011;16879;50.852;15.602;2023-03-01T00:21:26;90.10;;;37.42;;
30048;SDS011;16879;50.852;15.602;2023-03-01T00:23:53;69.72;;;27.60;;
30048;SDS011;16879;50.852;15.602;2023-03-01T00:26:19;64.93;;;27.25;;
30048;SDS011;16879;50.852;15.602;2023-03-01T00:28:46;49.22;;;24.15;;
30048;SDS011;16879;50.852;15.602;2023-03-01T00:31:17;49.47;;;24.17;;
30048;SDS011;16879;50.852;15.602;2023-03-01T00:33:44;50.58;;;22.90;;
30048;SDS011;16879;50.852;15.602;2023-03-01T00:36:10;48.75;;;23.48;;
30048;SDS011;16879;50.852;15.602;2023-03-01T00:38:41;42.75;;;21.33;;
30048;SDS011;16879;50.852;15.602;2023-03-01T00:41:09;38.95;;;20.35;;
30048;SDS011;16879;50.852;15.602;2023-03-01T00:43:36;45.50;;;22.05;;
30048;SDS011;16879;50.852;15.602;2023-03-01T00:46:07;45.47;;;20.50;;
30048;SDS011;16879;50.852;15.602;2023-03-01T00:48:37;46.05;;;20.52;;
30048;SDS011;16879;50.852;15.602;2023-03-01T00:51:04;43.28;;;20.23;;
30048;SDS011;16879;50.852;15.602;2023-03-01T00:53:37;40.13;;;19.08;;
30048;SDS011;16879;50.852;15.602;2023-03-01T00:56:04;37.70;;;17.30;;
30048;SDS011;16879;50.852;15.602;2023-03-01T00:58:31;40.75;;;20.38;;
30048;SDS011;16879;50.852;15.602;2023-03-01T01:00:57;33.25;;;16.88;;
30048;SDS011;16879;50.852;15.602;2023-03-01T01:03:23;38.92;;;16.63;;
30048;SDS011;16879;50.852;15.602;2023-03-01T01:05:50;37.00;;;16.42;;
30048;SDS011;16879;50.852;15.602;2023-03-01T01:08:17;46.25;;;19.08;;
30048;SDS011;16879;50.852;15.602;2023-03-01T01:10:43;41.03;;;19.15;;
30048;SDS011;16879;50.852;15.602;2023-03-01T01:13:10;38.90;;;18.95;;
30048;SDS011;16879;50.852;15.602;2023-03-01T01:15:36;36.40;;;17.75;;
30048;SDS011;16879;50.852;15.602;2023-03-01T01:18:03;31.20;;;14.90;;
30048;SDS011;16879;50.852;15.602;2023-03-01T01:20:29;30.23;;;14.95;;
30048;SDS011;16879;50.852;15.602;2023-03-01T01:22:55;34.97;;;17.30;;
30048;SDS011;16879;50.852;15.602;2023-03-01T01:25:21;35.17;;;16.70;;
30048;SDS011;16879;50.852;15.602;2023-03-01T01:27:50;34.75;;;15.98;;
30048;SDS011;16879;50.852;15.602;2023-03-01T01:30:16;32.22;;;14.35;;
30048;SDS011;16879;50.852;15.602;2023-03-01T01:32:42;38.17;;;15.90;;
30048;SDS011;16879;50.852;15.602;2023-03-01T01:35:08;32.25;;;15.45;;
30048;SDS011;16879;50.852;15.602;2023-03-01T01:37:35;27.20;;;14.63;;
30048;SDS011;16879;50.852;15.602;2023-03-01T01:40:01;31.67;;;13.68;;
30048;SDS011;16879;50.852;15.602;2023-03-01T01:42:30;32.38;;;14.13;;
30048;SDS011;16879;50.852;15.602;2023-03-01T01:47:47;31.77;;;15.38;;
30048;SDS011;16879;50.852;15.602;2023-03-01T01:50:14;30.13;;;15.93;;
30048;SDS011;16879;50.852;15.602;2023-03-01T01:52:43;29.00;;;13.88;;
30048;SDS011;16879;50.852;15.602;2023-03-01T01:55:14;32.45;;;14.48;;
30048;SDS011;16879;50.852;15.602;2023-03-01T01:57:42;31.23;;;14.95;;
30048;SDS011;16879;50.852;15.602;2023-03-01T02:00:17;27.25;;;14.65;;
30048;SDS011;16879;50.852;15.602;2023-03-01T02:02:44;27.38;;;13.52;;
30048;SDS011;16879;50.852;15.602;2023-03-01T02:05:17;28.42;;;14.40;;
30048;SDS011;16879;50.852;15.602;2023-03-01T02:07:44;30.25;;;14.73;;
30048;SDS011;16879;50.852;15.602;2023-03-01T02:10:11;30.52;;;14.30;;
30048;SDS011;16879;50.852;15.602;2023-03-01T02:12:37;29.70;;;15.02;;
30048;SDS011;16879;50.852;15.602;2023-03-01T02:15:04;28.70;;;14.15;;
30048;SDS011;16879;50.852;15.602;2023-03-01T02:17:31;31.70;;;13.40;;
30048;SDS011;16879;50.852;15.602;2023-03-01T02:20:14;25.83;;;13.20;;
30048;SDS011;16879;50.852;15.602;2023-03-01T02:27:50;27.88;;;13.32;;
30048;SDS011;16879;50.852;15.602;2023-03-01T02:30:19;31.90;;;14.13;;
30048;SDS011;16879;50.852;15.602;2023-03-01T02:32:46;36.78;;;14.77;;
30048;SDS011;16879;50.852;15.602;2023-03-01T02:35:14;29.73;;;13.85;;
30048;SDS011;16879;50.852;15.602;2023-03-01T02:37:42;27.17;;;14.00;;
30048;SDS011;16879;50.852;15.602;2023-03-01T02:40:13;30.15;;;13.77;;
30048;SDS011;16879;50.852;15.602;2023-03-01T02:42:47;30.92;;;15.00;;
30048;SDS011;16879;50.852;15.602;2023-03-01T02:45:17;28.85;;;14.73;;
30048;SDS011;16879;50.852;15.602;2023-03-01T02:47:43;32.85;;;15.00;;
30048;SDS011;16879;50.852;15.602;2023-03-01T02:56:11;29.85;;;15.00;;
30048;SDS011;16879;50.852;15.602;2023-03-01T02:58:39;29.98;;;13.45;;
30048;SDS011;16879;50.852;15.602;2023-03-01T03:01:11;30.90;;;14.60;;
30048;SDS011;16879;50.852;15.602;2023-03-01T03:03:38;26.92;;;13.95;;
30048;SDS011;16879;50.852;15.602;2023-03-01T03:06:04;30.50;;;15.63;;
30048;SDS011;16879;50.852;15.602;2023-03-01T03:08:31;56.38;;;26.05;;
30048;SDS011;16879;50.852;15.602;2023-03-01T03:10:57;66.13;;;28.50;;
30048;SDS011;16879;50.852;15.602;2023-03-01T03:13:23;57.33;;;25.35;;
30048;SDS011;16879;50.852;15.602;2023-03-01T03:15:53;50.60;;;22.75;;
30048;SDS011;16879;50.852;15.602;2023-03-01T03:18:20;60.22;;;27.02;;
30048;SDS011;16879;50.852;15.602;2023-03-01T03:20:46;56.60;;;25.52;;
30048;SDS011;16879;50.852;15.602;2023-03-01T03:23:17;52.17;;;23.05;;
30048;SDS011;16879;50.852;15.602;2023-03-01T03:25:43;46.63;;;21.27;;
30048;SDS011;16879;50.852;15.602;2023-03-01T03:28:10;42.65;;;20.33;;
30048;SDS011;16879;50.852;15.602;2023-03-01T03:30:38;41.00;;;17.30;;
30048;SDS011;16879;50.852;15.602;2023-03-01T03:33:04;40.63;;;18.27;;
30048;SDS011;16879;50.852;15.602;2023-03-01T03:35:32;57.88;;;24.30;;
30048;SDS011;16879;50.852;15.602;2023-03-01T03:37:59;48.85;;;21.90;;
30048;SDS011;16879;50.852;15.602;2023-03-01T03:41:03;48.47;;;20.65;;
30048;SDS011;16879;50.852;15.602;2023-03-01T03:43:31;43.22;;;21.00;;
30048;SDS011;16879;50.852;15.602;2023-03-01T03:45:58;49.58;;;20.33;;
30048;SDS011;16879;50.852;15.602;2023-03-01T03:48:24;50.33;;;21.30;;
30048;SDS011;16879;50.852;15.602;2023-03-01T03:50:55;45.35;;;19.10;;
30048;SDS011;16879;50.852;15.602;2023-03-01T03:53:22;54.10;;;22.92;;
30048;SDS011;16879;50.852;15.602;2023-03-01T03:55:50;48.08;;;19.67;;
30048;SDS011;16879;50.852;15.602;2023-03-01T03:58:16;45.15;;;17.48;;
30048;SDS011;16879;50.852;15.602;2023-03-01T04:00:45;33.92;;;15.88;;
30048;SDS011;16879;50.852;15.602;2023-03-01T04:03:12;29.55;;;14.57;;
30048;SDS011;16879;50.852;15.602;2023-03-01T04:05:40;31.05;;;14.73;;
30048;SDS011;16879;50.852;15.602;2023-03-01T04:08:06;28.00;;;13.63;;
30048;SDS011;16879;50.852;15.602;2023-03-01T04:10:43;39.42;;;15.27;;
30048;SDS011;16879;50.852;15.602;2023-03-01T04:13:14;29.48;;;13.90;;
30048;SDS011;16879;50.852;15.602;2023-03-01T04:15:40;26.92;;;12.48;;
30048;SDS011;16879;50.852;15.602;2023-03-01T04:18:08;47.30;;;16.52;;
30048;SDS011;16879;50.852;15.602;2023-03-01T04:20:36;54.72;;;23.08;;
30048;SDS011;16879;50.852;15.602;2023-03-01T04:23:07;58.80;;;24.85;;
30048;SDS011;16879;50.852;15.602;2023-03-01T04:25:50;36.80;;;17.35;;
30048;SDS011;16879;50.852;15.602;2023-03-01T04:28:24;34.83;;;17.38;;
30048;SDS011;16879;50.852;15.602;2023-03-01T04:30:52;32.55;;;15.18;;
30048;SDS011;16879;50.852;15.602;2023-03-01T04:33:18;32.33;;;15.55;;
30048;SDS011;16879;50.852;15.602;2023-03-01T04:35:44;34.13;;;15.93;;
30048;SDS011;16879;50.852;15.602;2023-03-01T04:38:11;31.38;;;16.10;;
30048;SDS011;16879;50.852;15.602;2023-03-01T04:40:37;29.08;;;13.65;;
30048;SDS011;16879;50.852;15.602;2023-03-01T04:43:03;31.70;;;13.88;;
30048;SDS011;16879;50.852;15.602;2023-03-01T04:45:31;23.02;;;11.80;;
30048;SDS011;16879;50.852;15.602;2023-03-01T04:47:59;32.30;;;15.02;;
30048;SDS011;16879;50.852;15.602;2023-03-01T04:50:25;35.03;;;14.93;;
30048;SDS011;16879;50.852;15.602;2023-03-01T04:52:51;26.02;;;13.00;;
30048;SDS011;16879;50.852;15.602;2023-03-01T04:55:18;31.85;;;14.43;;
30048;SDS011;16879;50.852;15.602;2023-03-01T04:57:45;27.63;;;14.88;;
30048;SDS011;16879;50.852;15.602;2023-03-01T05:00:12;33.30;;;14.88;;
30048;SDS011;16879;50.852;15.602;2023-03-01T05:02:52;27.42;;;13.48;;
30048;SDS011;16879;50.852;15.602;2023-03-01T05:05:28;25.30;;;12.25;;
30048;SDS011;16879;50.852;15.602;2023-03-01T05:07:55;26.30;;;12.45;;
30048;SDS011;16879;50.852;15.602;2023-03-01T05:10:22;34.53;;;15.10;;
30048;SDS011;16879;50.852;15.602;2023-03-01T05:12:49;33.10;;;18.10;;
30048;SDS011;16879;50.852;15.602;2023-03-01T05:15:17;44.88;;;19.10;;
30048;SDS011;16879;50.852;15.602;2023-03-01T05:17:43;54.88;;;26.42;;
30048;SDS011;16879;50.852;15.602;2023-03-01T05:20:10;60.60;;;25.50;;
30048;SDS011;16879;50.852;15.602;2023-03-01T05:22:36;65.10;;;27.67;;
30048;SDS011;16879;50.852;15.602;2023-03-01T05:25:03;42.70;;;17.70;;
30048;SDS011;16879;50.852;15.602;2023-03-01T05:27:30;42.47;;;17.17;;
30048;SDS011;16879;50.852;15.602;2023-03-01T05:29:56;41.10;;;20.10;;
30048;SDS011;16879;50.852;15.602;2023-03-01T05:32:22;38.25;;;19.10;;
30048;SDS011;16879;50.852;15.602;2023-03-01T05:34:49;38.53;;;18.73;;
30048;SDS011;16879;50.852;15.602;2023-03-01T05:37:17;35.90;;;17.10;;
30048;SDS011;16879;50.852;15.602;2023-03-01T05:39:44;32.78;;;16.38;;
30048;SDS011;16879;50.852;15.602;2023-03-01T05:42:10;32.13;;;14.15;;
30048;SDS011;16879;50.852;15.602;2023-03-01T05:44:37;39.08;;;16.95;;
30048;SDS011;16879;50.852;15.602;2023-03-01T05:47:03;54.63;;;21.65;;
30048;SDS011;16879;50.852;15.602;2023-03-01T05:49:32;82.10;;;35.58;;
30048;SDS011;16879;50.852;15.602;2023-03-01T05:51:58;74.75;;;36.85;;
30048;SDS011;16879;50.852;15.602;2023-03-01T05:54:27;84.75;;;36.78;;
30048;SDS011;16879;50.852;15.602;2023-03-01T05:56:59;81.57;;;36.45;;
30048;SDS011;16879;50.852;15.602;2023-03-01T05:59:25;47.47;;;23.10;;
30048;SDS011;16879;50.852;15.602;2023-03-01T06:01:51;48.40;;;22.63;;
30048;SDS011;16879;50.852;15.602;2023-03-01T06:04:18;57.60;;;24.08;;
30048;SDS011;16879;50.852;15.602;2023-03-01T06:06:46;81.15;;;34.58;;
30048;SDS011;16879;50.852;15.602;2023-03-01T06:09:12;87.20;;;39.90;;
30048;SDS011;16879;50.852;15.602;2023-03-01T06:11:39;65.63;;;30.77;;
30048;SDS011;16879;50.852;15.602;2023-03-01T06:14:05;65.20;;;34.65;;
30048;SDS011;16879;50.852;15.602;2023-03-01T06:16:32;66.38;;;32.53;;
30048;SDS011;16879;50.852;15.602;2023-03-01T06:18:59;60.08;;;30.38;;
30048;SDS011;16879;50.852;15.602;2023-03-01T06:21:25;60.53;;;30.75;;
30048;SDS011;16879;50.852;15.602;2023-03-01T06:23:51;56.22;;;26.15;;
30048;SDS011;16879;50.852;15.602;2023-03-01T06:26:17;72.05;;;30.45;;
30048;SDS011;16879;50.852;15.602;2023-03-01T06:28:44;59.25;;;29.75;;
30048;SDS011;16879;50.852;15.602;2023-03-01T06:31:12;57.15;;;29.52;;
30048;SDS011;16879;50.852;15.602;2023-03-01T06:33:38;61.33;;;28.70;;
30048;SDS011;16879;50.852;15.602;2023-03-01T06:36:05;53.00;;;26.90;;
30048;SDS011;16879;50.852;15.602;2023-03-01T06:38:31;82.13;;;31.67;;
30048;SDS011;16879;50.852;15.602;2023-03-01T06:40:57;99.03;;;37.60;;
30048;SDS011;16879;50.852;15.602;2023-03-01T06:43:24;108.20;;;37.35;;
30048;SDS011;16879;50.852;15.602;2023-03-01T06:45:50;78.53;;;29.95;;
30048;SDS011;16879;50.852;15.602;2023-03-01T06:48:16;73.60;;;26.60;;
30048;SDS011;16879;50.852;15.602;2023-03-01T06:50:42;78.93;;;29.27;;
30048;SDS011;16879;50.852;15.602;2023-03-01T06:53:09;121.00;;;39.20;;
30048;SDS011;16879;50.852;15.602;2023-03-01T06:55:35;207.85;;;57.15;;
30048;SDS011;16879;50.852;15.602;2023-03-01T06:58:02;232.70;;;65.82;;
30048;SDS011;16879;50.852;15.602;2023-03-01T07:00:29;137.75;;;49.03;;
30048;SDS011;16879;50.852;15.602;2023-03-01T07:02:57;138.65;;;45.33;;
30048;SDS011;16879;50.852;15.602;2023-03-01T07:05:24;133.55;;;45.20;;
30048;SDS011;16879;50.852;15.602;2023-03-01T07:07:50;115.93;;;44.70;;
30048;SDS011;16879;50.852;15.602;2023-03-01T07:10:16;90.32;;;41.00;;
30048;SDS011;16879;50.852;15.602;2023-03-01T07:12:42;67.18;;;31.77;;
30048;SDS011;16879;50.852;15.602;2023-03-01T07:15:09;58.90;;;27.60;;
30048;SDS011;16879;50.852;15.602;2023-03-01T07:17:35;54.50;;;24.85;;
30048;SDS011;16879;50.852;15.602;2023-03-01T07:20:02;58.72;;;24.70;;
30048;SDS011;16879;50.852;15.602;2023-03-01T07:22:28;50.78;;;23.85;;
30048;SDS011;16879;50.852;15.602;2023-03-01T07:24:54;49.50;;;21.25;;
30048;SDS011;16879;50.852;15.602;2023-03-01T07:27:20;56.17;;;25.42;;
30048;SDS011;16879;50.852;15.602;2023-03-01T07:29:46;66.25;;;28.60;;
30048;SDS011;16879;50.852;15.602;2023-03-01T07:32:12;57.00;;;26.80;;
30048;SDS011;16879;50.852;15.602;2023-03-01T07:34:39;66.97;;;31.20;;
30048;SDS011;16879;50.852;15.602;2023-03-01T07:37:05;64.75;;;29.58;;
30048;SDS011;16879;50.852;15.602;2023-03-01T07:39:31;58.42;;;26.52;;
30048;SDS011;16879;50.852;15.602;2023-03-01T07:41:57;54.70;;;27.17;;
30048;SDS011;16879;50.852;15.602;2023-03-01T07:44:23;57.53;;;25.50;;
30048;SDS011;16879;50.852;15.602;2023-03-01T07:46:50;63.75;;;28.30;;
30048;SDS011;16879;50.852;15.602;2023-03-01T07:49:21;55.58;;;25.85;;
30048;SDS011;16879;50.852;15.602;2023-03-01T07:51:47;66.40;;;30.70;;
30048;SDS011;16879;50.852;15.602;2023-03-01T07:54:13;57.85;;;27.33;;
30048;SDS011;16879;50.852;15.602;2023-03-01T07:56:40;65.55;;;30.60;;
30048;SDS011;16879;50.852;15.602;2023-03-01T07:59:06;66.80;;;31.35;;
30048;SDS011;16879;50.852;15.602;2023-03-01T08:01:32;59.55;;;27.52;;
30048;SDS011;16879;50.852;15.602;2023-03-01T08:03:58;63.08;;;30.98;;
30048;SDS011;16879;50.852;15.602;2023-03-01T08:06:24;57.05;;;27.65;;
30048;SDS011;16879;50.852;15.602;2023-03-01T08:08:51;55.60;;;26.38;;
30048;SDS011;16879;50.852;15.602;2023-03-01T08:11:17;53.13;;;25.40;;
30048;SDS011;16879;50.852;15.602;2023-03-01T08:13:43;49.33;;;25.83;;
30048;SDS011;16879;50.852;15.602;2023-03-01T08:16:10;46.40;;;23.30;;
30048;SDS011;16879;50.852;15.602;2023-03-01T08:18:37;55.45;;;25.88;;
30048;SDS011;16879;50.852;15.602;2023-03-01T08:21:04;59.35;;;27.88;;
30048;SDS011;16879;50.852;15.602;2023-03-01T08:23:30;59.85;;;27.85;;
30048;SDS011;16879;50.852;15.602;2023-03-01T08:26:30;51.97;;;26.30;;
30048;SDS011;16879;50.852;15.602;2023-03-01T08:28:49;53.95;;;27.65;;
30048;SDS011;16879;50.852;15.602;2023-03-01T08:31:20;47.38;;;26.83;;
30048;SDS011;16879;50.852;15.602;2023-03-01T08:33:47;51.83;;;25.58;;
30048;SDS011;16879;50.852;15.602;2023-03-01T08:36:16;51.22;;;25.67;;
30048;SDS011;16879;50.852;15.602;2023-03-01T08:38:42;62.63;;;29.10;;
30048;SDS011;16879;50.852;15.602;2023-03-01T08:41:09;56.67;;;27.70;;
30048;SDS011;16879;50.852;15.602;2023-03-01T08:43:35;56.70;;;29.00;;
30048;SDS011;16879;50.852;15.602;2023-03-01T08:46:01;46.40;;;23.83;;
30048;SDS011;16879;50.852;15.602;2023-03-01T08:48:28;49.30;;;24.02;;
30048;SDS011;16879;50.852;15.602;2023-03-01T08:50:54;36.40;;;20.48;;
30048;SDS011;16879;50.852;15.602;2023-03-01T08:53:20;41.70;;;21.02;;
30048;SDS011;16879;50.852;15.602;2023-03-01T08:55:46;46.78;;;22.50;;
30048;SDS011;16879;50.852;15.602;2023-03-01T08:58:13;43.20;;;23.33;;
30048;SDS011;16879;50.852;15.602;2023-03-01T09:00:39;46.22;;;22.10;;
30048;SDS011;16879;50.852;15.602;2023-03-01T09:03:05;44.30;;;22.27;;
30048;SDS011;16879;50.852;15.602;2023-03-01T09:05:32;38.15;;;20.90;;
30048;SDS011;16879;50.852;15.602;2023-03-01T09:07:59;51.95;;;23.73;;
30048;SDS011;16879;50.852;15.602;2023-03-01T09:10:25;41.35;;;23.80;;
30048;SDS011;16879;50.852;15.602;2023-03-01T09:12:51;49.08;;;24.88;;
30048;SDS011;16879;50.852;15.602;2023-03-01T09:15:17;49.35;;;25.27;;
30048;SDS011;16879;50.852;15.602;2023-03-01T09:17:43;41.33;;;23.02;;
30048;SDS011;16879;50.852;15.602;2023-03-01T09:20:10;52.90;;;25.40;;
30048;SDS011;16879;50.852;15.602;2023-03-01T09:22:36;51.38;;;24.80;;
30048;SDS011;16879;50.852;15.602;2023-03-01T09:25:02;46.42;;;25.75;;
30048;SDS011;16879;50.852;15.602;2023-03-01T09:27:28;49.50;;;23.85;;
30048;SDS011;16879;50.852;15.602;2023-03-01T09:29:55;42.70;;;24.40;;
30048;SDS011;16879;50.852;15.602;2023-03-01T09:32:21;43.50;;;21.92;;
30048;SDS011;16879;50.852;15.602;2023-03-01T09:34:47;50.92;;;24.75;;
30048;SDS011;16879;50.852;15.602;2023-03-01T09:37:28;43.53;;;24.02;;
30048;SDS011;16879;50.852;15.602;2023-03-01T09:39:55;48.58;;;24.80;;
30048;SDS011;16879;50.852;15.602;2023-03-01T09:42:21;45.70;;;24.90;;
30048;SDS011;16879;50.852;15.602;2023-03-01T09:47:33;46.10;;;23.50;;
30048;SDS011;16879;50.852;15.602;2023-03-01T09:50:16;56.60;;;24.52;;
30048;SDS011;16879;50.852;15.602;2023-03-01T09:52:46;57.37;;;27.63;;
30048;SDS011;16879;50.852;15.602;2023-03-01T09:55:15;56.38;;;28.77;;
30048;SDS011;16879;50.852;15.602;2023-03-01T10:06:19;55.35;;;29.13;;
30048;SDS011;16879;50.852;15.602;2023-03-01T10:08:49;58.17;;;28.58;;
30048;SDS011;16879;50.852;15.602;2023-03-01T10:11:24;57.80;;;30.23;;
30048;SDS011;16879;50.852;15.602;2023-03-01T10:16:26;55.92;;;28.85;;
30048;SDS011;16879;50.852;15.602;2023-03-01T10:18:55;63.30;;;32.35;;
30048;SDS011;16879;50.852;15.602;2023-03-01T10:21:22;61.38;;;31.83;;
30048;SDS011;16879;50.852;15.602;2023-03-01T10:23:51;54.75;;;29.15;;
30048;SDS011;16879;50.852;15.602;2023-03-01T10:26:53;70.15;;;35.25;;
30048;SDS011;16879;50.852;15.602;2023-03-01T10:29:17;56.38;;;30.40;;
30048;SDS011;16879;50.852;15.602;2023-03-01T10:31:46;61.28;;;31.52;;
30048;SDS011;16879;50.852;15.602;2023-03-01T10:36:39;63.42;;;34.40;;
30048;SDS011;16879;50.852;15.602;2023-03-01T10:39:11;67.57;;;33.50;;
30048;SDS011;16879;50.852;15.602;2023-03-01T10:41:40;59.22;;;32.03;;
30048;SDS011;16879;50.852;15.602;2023-03-01T10:44:10;53.53;;;28.75;;
30048;SDS011;16879;50.852;15.602;2023-03-01T10:46:59;67.75;;;31.63;;
30048;SDS011;16879;50.852;15.602;2023-03-01T10:49:29;55.95;;;29.27;;
30048;SDS011;16879;50.852;15.602;2023-03-01T10:57:46;55.17;;;30.98;;
30048;SDS011;16879;50.852;15.602;2023-03-01T11:00:25;54.65;;;28.20;;
30048;SDS011;16879;50.852;15.602;2023-03-01T11:05:25;58.42;;;30.13;;
30048;SDS011;16879;50.852;15.602;2023-03-01T11:07:55;57.83;;;30.98;;
30048;SDS011;16879;50.852;15.602;2023-03-01T11:10:32;54.90;;;29.83;;
30048;SDS011;16879;50.852;15.602;2023-03-01T11:13:32;59.47;;;30.92;;
30048;SDS011;16879;50.852;15.602;2023-03-01T11:16:02;55.40;;;30.05;;
30048;SDS011;16879;50.852;15.602;2023-03-01T11:18:29;61.83;;;33.40;;
30048;SDS011;16879;50.852;15.602;2023-03-01T11:20:56;56.70;;;29.67;;
30048;SDS011;16879;50.852;15.602;2023-03-01T11:23:24;46.03;;;27.15;;
30048;SDS011;16879;50.852;15.602;2023-03-01T11:26:01;53.42;;;27.92;;
30048;SDS011;16879;50.852;15.602;2023-03-01T11:28:28;51.67;;;28.13;;
30048;SDS011;16879;50.852;15.602;2023-03-01T11:31:03;49.50;;;28.45;;
30048;SDS011;16879;50.852;15.602;2023-03-01T11:39:28;45.85;;;25.55;;
30048;SDS011;16879;50.852;15.602;2023-03-01T11:42:02;53.38;;;28.92;;
30048;SDS011;16879;50.852;15.602;2023-03-01T11:44:31;50.60;;;28.02;;
30048;SDS011;16879;50.852;15.602;2023-03-01T12:03:07;55.67;;;27.73;;
30048;SDS011;16879;50.852;15.602;2023-03-01T12:08:33;52.33;;;28.00;;
30048;SDS011;16879;50.852;15.602;2023-03-01T12:16:28;44.88;;;26.52;;
30048;SDS011;16879;50.852;15.602;2023-03-01T12:32:52;48.80;;;25.77;;
30048;SDS011;16879;50.852;15.602;2023-03-01T12:38:11;46.97;;;26.08;;
30048;SDS011;16879;50.852;15.602;2023-03-01T12:40:46;46.58;;;25.40;;
30048;SDS011;16879;50.852;15.602;2023-03-01T12:43:25;55.83;;;30.30;;
30048;SDS011;16879;50.852;15.602;2023-03-01T12:45:58;45.03;;;26.55;;
30048;SDS011;16879;50.852;15.602;2023-03-01T12:51:11;47.05;;;25.92;;
30048;SDS011;16879;50.852;15.602;2023-03-01T12:53:41;48.78;;;27.00;;
30048;SDS011;16879;50.852;15.602;2023-03-01T12:56:09;53.42;;;26.45;;
30048;SDS011;16879;50.852;15.602;2023-03-01T13:11:28;47.00;;;27.80;;
30048;SDS011;16879;50.852;15.602;2023-03-01T13:16:40;47.50;;;28.17;;
30048;SDS011;16879;50.852;15.602;2023-03-01T13:19:17;45.97;;;26.08;;
30048;SDS011;16879;50.852;15.602;2023-03-01T13:21:44;42.33;;;24.30;;
30048;SDS011;16879;50.852;15.602;2023-03-01T13:24:27;45.78;;;26.60;;
30048;SDS011;16879;50.852;15.602;2023-03-01T13:29:51;40.92;;;23.98;;
30048;SDS011;16879;50.852;15.602;2023-03-01T13:34:51;40.00;;;23.75;;
30048;SDS011;16879;50.852;15.602;2023-03-01T13:37:19;38.60;;;24.33;;
30048;SDS011;16879;50.852;15.602;2023-03-01T13:39:45;41.80;;;27.05;;
30048;SDS011;16879;50.852;15.602;2023-03-01T13:44:57;44.15;;;25.50;;
30048;SDS011;16879;50.852;15.602;2023-03-01T13:47:24;44.78;;;24.00;;
30048;SDS011;16879;50.852;15.602;2023-03-01T13:54:58;46.80;;;24.85;;
30048;SDS011;16879;50.852;15.602;2023-03-01T13:57:28;46.55;;;27.35;;
30048;SDS011;16879;50.852;15.602;2023-03-01T14:00:01;47.85;;;25.15;;
30048;SDS011;16879;50.852;15.602;2023-03-01T14:02:28;38.47;;;25.13;;
30048;SDS011;16879;50.852;15.602;2023-03-01T14:04:58;36.60;;;22.70;;
30048;SDS011;16879;50.852;15.602;2023-03-01T14:07:24;40.67;;;24.33;;
30048;SDS011;16879;50.852;15.602;2023-03-01T14:09:55;38.03;;;22.38;;
30048;SDS011;16879;50.852;15.602;2023-03-01T14:15:14;39.45;;;24.50;;
30048;SDS011;16879;50.852;15.602;2023-03-01T14:20:17;38.22;;;23.42;;
30048;SDS011;16879;50.852;15.602;2023-03-01T14:22:44;40.58;;;21.92;;
30048;SDS011;16879;50.852;15.602;2023-03-01T14:27:59;37.80;;;23.63;;
30048;SDS011;16879;50.852;15.602;2023-03-01T14:30:34;43.15;;;24.90;;
30048;SDS011;16879;50.852;15.602;2023-03-01T14:33:02;33.55;;;21.75;;
30048;SDS011;16879;50.852;15.602;2023-03-01T14:35:32;36.60;;;21.25;;
30048;SDS011;16879;50.852;15.602;2023-03-01T14:37:58;31.83;;;20.77;;
30048;SDS011;16879;50.852;15.602;2023-03-01T14:40:26;33.13;;;20.75;;
30048;SDS011;16879;50.852;15.602;2023-03-01T14:42:55;35.47;;;22.65;;
30048;SDS011;16879;50.852;15.602;2023-03-01T14:45:22;39.53;;;23.42;;
30048;SDS011;16879;50.852;15.602;2023-03-01T14:47:50;35.58;;;22.00;;
30048;SDS011;16879;50.852;15.602;2023-03-01T14:50:21;28.73;;;20.27;;
30048;SDS011;16879;50.852;15.602;2023-03-01T14:52:48;38.03;;;19.58;;
30048;SDS011;16879;50.852;15.602;2023-03-01T14:55:21;31.10;;;18.83;;
30048;SDS011;16879;50.852;15.602;2023-03-01T14:57:48;25.88;;;18.00;;
30048;SDS011;16879;50.852;15.602;2023-03-01T15:00:17;25.30;;;17.77;;
30048;SDS011;16879;50.852;15.602;2023-03-01T15:02:44;25.48;;;17.73;;
30048;SDS011;16879;50.852;15.602;2023-03-01T15:05:13;30.40;;;18.20;;
30048;SDS011;16879;50.852;15.602;2023-03-01T15:07:40;30.40;;;20.05;;
30048;SDS011;16879;50.852;15.602;2023-03-01T15:10:14;41.85;;;22.17;;
30048;SDS011;16879;50.852;15.602;2023-03-01T15:12:44;29.50;;;18.77;;
30048;SDS011;16879;50.852;15.602;2023-03-01T15:15:22;31.83;;;19.02;;
30048;SDS011;16879;50.852;15.602;2023-03-01T15:17:50;27.08;;;18.40;;
30048;SDS011;16879;50.852;15.602;2023-03-01T15:20:20;34.35;;;18.42;;
30048;SDS011;16879;50.852;15.602;2023-03-01T15:22:47;28.17;;;18.75;;
30048;SDS011;16879;50.852;15.602;2023-03-01T15:25:16;28.45;;;17.45;;
30048;SDS011;16879;50.852;15.602;2023-03-01T15:27:47;26.45;;;18.75;;
30048;SDS011;16879;50.852;15.602;2023-03-01T15:33:16;28.13;;;19.25;;
30048;SDS011;16879;50.852;15.602;2023-03-01T15:35:44;32.08;;;20.02;;
30048;SDS011;16879;50.852;15.602;2023-03-01T15:41:02;35.43;;;21.50;;
30048;SDS011;16879;50.852;15.602;2023-03-01T15:43:39;28.83;;;19.65;;
30048;SDS011;16879;50.852;15.602;2023-03-01T15:46:12;29.73;;;19.67;;
30048;SDS011;16879;50.852;15.602;2023-03-01T15:48:48;29.73;;;20.38;;
30048;SDS011;16879;50.852;15.602;2023-03-01T15:51:17;37.53;;;26.52;;
30048;SDS011;16879;50.852;15.602;2023-03-01T15:53:46;44.78;;;31.45;;
30048;SDS011;16879;50.852;15.602;2023-03-01T15:56:15;49.47;;;38.60;;
30048;SDS011;16879;50.852;15.602;2023-03-01T15:58:41;55.22;;;39.85;;
30048;SDS011;16879;50.852;15.602;2023-03-01T16:01:13;47.28;;;29.45;;
30048;SDS011;16879;50.852;15.602;2023-03-01T16:03:40;42.65;;;27.65;;
30048;SDS011;16879;50.852;15.602;2023-03-01T16:06:08;47.70;;;29.30;;
30048;SDS011;16879;50.852;15.602;2023-03-01T16:08:35;46.20;;;30.10;;
30048;SDS011;16879;50.852;15.602;2023-03-01T16:11:02;41.00;;;28.02;;
30048;SDS011;16879;50.852;15.602;2023-03-01T16:13:31;44.95;;;29.90;;
30048;SDS011;16879;50.852;15.602;2023-03-01T16:15:58;45.53;;;27.92;;
30048;SDS011;16879;50.852;15.602;2023-03-01T16:18:24;68.18;;;38.03;;
30048;SDS011;16879;50.852;15.602;2023-03-01T16:20:50;65.10;;;36.20;;
30048;SDS011;16879;50.852;15.602;2023-03-01T16:23:19;74.30;;;39.00;;
30048;SDS011;16879;50.852;15.602;2023-03-01T16:25:47;75.25;;;41.30;;
30048;SDS011;16879;50.852;15.602;2023-03-01T16:28:13;73.60;;;39.58;;